Time;durP1;ratioP1;P1;durP2;ratioP2;P2;SDS_P1;SDS_P2;PMS_P1;PMS_P2;Temp;Humidity;BMP_temperature;BMP_pressure;BME280_temperature;BME280_humidity;BME280_pressure;Samples;Min_cycle;Max_cycle;Signal;HPM_P1;HPM_P2
2022/10/02 00:03:52;;;;;;;1.80;1.00;;;16.20;48.00;;;;;;10485778;28;20228;-81
2022/10/02 00:09:02;;;;;;;1.10;0.80;;;16.20;47.80;;;;;;10480966;28;20232;-81
2022/10/02 00:14:10;;;;;;;1.00;0.80;;;16.20;48.10;;;;;;10481898;28;20232;-80
2022/10/02 00:19:17;;;;;;;2.20;0.90;;;16.10;48.10;;;;;;10480184;28;20290;-80
2022/10/02 00:24:25;;;;;;;1.00;0.70;;;16.10;48.20;;;;;;10473468;28;20255;-80
2022/10/02 00:29:47;;;;;;;1.20;0.90;;;16.10;48.20;;;;;;10473830;28;20662;-80
2022/10/02 00:35:13;;;;;;;3.60;1.00;;;16.20;48.40;;;;;;10477902;28;20298;-81
2022/10/02 00:40:37;;;;;;;1.90;1.00;;;16.20;48.40;;;;;;10472017;28;20224;-80
2022/10/02 00:46:17;;;;;;;2.50;0.80;;;16.20;49.20;;;;;;10480309;28;20295;-80
2022/10/02 00:51:35;;;;;;;2.23;1.00;;;16.20;48.50;;;;;;10470926;28;20300;-81
2022/10/02 00:56:46;;;;;;;2.40;1.10;;;16.20;48.60;;;;;;10479882;28;20225;-80
2022/10/02 01:01:56;;;;;;;3.03;1.00;;;16.10;48.80;;;;;;10471901;28;20735;-80
2022/10/02 01:07:00;;;;;;;1.33;0.80;;;16.10;48.80;;;;;;10473215;28;20232;-81
2022/10/02 01:12:04;;;;;;;1.80;0.90;;;16.10;48.40;;;;;;10480349;28;20229;-81
2022/10/02 01:17:22;;;;;;;2.63;0.97;;;16.00;48.50;;;;;;10476155;28;20225;-81
2022/10/02 01:22:31;;;;;;;2.67;0.80;;;16.00;49.20;;;;;;10477519;28;20960;-80
2022/10/02 01:27:36;;;;;;;1.80;1.00;;;16.00;49.10;;;;;;10473189;28;20225;-81
2022/10/02 01:32:43;;;;;;;2.23;1.00;;;16.00;49.00;;;;;;10480514;28;20233;-80
2022/10/02 01:37:48;;;;;;;2.77;1.10;;;16.00;48.90;;;;;;10483613;28;20286;-81
2022/10/02 01:42:54;;;;;;;2.17;1.00;;;16.00;48.80;;;;;;10478045;28;20231;-80
2022/10/02 01:48:06;;;;;;;1.33;0.80;;;15.90;49.00;;;;;;10472333;28;20624;-80
2022/10/02 01:53:14;;;;;;;2.23;0.90;;;15.90;49.30;;;;;;10475332;28;20294;-80
2022/10/02 01:58:28;;;;;;;1.07;0.80;;;15.80;49.10;;;;;;10470427;28;20232;-81
2022/10/02 02:03:40;;;;;;;0.77;0.70;;;15.80;49.40;;;;;;10475460;28;20224;-80
2022/10/02 02:08:49;;;;;;;2.33;0.97;;;15.80;49.40;;;;;;10477163;28;20233;-81
2022/10/02 02:14:00;;;;;;;1.10;0.90;;;15.80;49.30;;;;;;10480738;28;20229;-81
2022/10/02 02:19:13;;;;;;;1.50;0.70;;;15.80;49.20;;;;;;10489762;28;20240;-81
2022/10/02 02:24:22;;;;;;;2.17;1.10;;;15.80;49.40;;;;;;10494611;28;20231;-80
2022/10/02 02:29:30;;;;;;;2.77;1.03;;;15.80;49.30;;;;;;10488750;28;20240;-80
2022/10/02 02:34:38;;;;;;;1.30;1.00;;;15.80;49.20;;;;;;10486908;28;20239;-80
2022/10/02 02:39:48;;;;;;;2.67;1.10;;;15.80;49.20;;;;;;10489674;28;20243;-80
2022/10/02 02:44:56;;;;;;;1.20;1.10;;;15.80;49.30;;;;;;10487155;28;20270;-80
2022/10/02 02:50:03;;;;;;;1.50;0.90;;;15.80;49.30;;;;;;10487143;28;20240;-81
2022/10/02 02:55:10;;;;;;;1.27;0.80;;;15.80;49.90;;;;;;10483165;28;20258;-80
2022/10/02 03:00:16;;;;;;;3.40;1.00;;;15.80;49.40;;;;;;10490913;28;20228;-80
2022/10/02 03:05:20;;;;;;;2.73;0.90;;;15.80;49.30;;;;;;10490883;28;20283;-80
2022/10/02 03:10:35;;;;;;;1.30;0.90;;;15.90;49.20;;;;;;10487011;28;20236;-80
2022/10/02 03:15:51;;;;;;;1.90;0.90;;;15.80;49.60;;;;;;10491633;28;20228;-79
2022/10/02 03:21:06;;;;;;;2.37;1.10;;;15.90;50.00;;;;;;10488954;28;20310;-80
2022/10/02 03:26:17;;;;;;;2.13;0.90;;;15.80;50.00;;;;;;10489492;28;20243;-79
2022/10/02 03:31:24;;;;;;;2.53;1.00;;;15.80;49.90;;;;;;10484530;28;20283;-79
2022/10/02 03:36:28;;;;;;;3.33;1.20;;;15.80;50.00;;;;;;10484547;28;20232;-79
2022/10/02 03:41:31;;;;;;;2.33;1.10;;;15.80;49.60;;;;;;10481708;28;20232;-79
2022/10/02 03:46:36;;;;;;;1.17;1.00;;;15.80;49.50;;;;;;10489963;28;20233;-79
2022/10/02 03:51:39;;;;;;;1.47;1.00;;;15.80;49.80;;;;;;10487400;28;20262;-80
2022/10/02 03:56:50;;;;;;;2.40;1.20;;;15.80;49.50;;;;;;10483013;28;20232;-80
2022/10/02 04:01:58;;;;;;;2.40;1.00;;;15.80;49.90;;;;;;10486101;28;20239;-80
2022/10/02 04:07:04;;;;;;;3.67;1.17;;;15.80;49.90;;;;;;10479580;28;20248;-81
2022/10/02 04:12:12;;;;;;;2.97;0.90;;;15.90;50.00;;;;;;10484892;28;20233;-80
2022/10/02 04:17:21;;;;;;;2.33;1.00;;;15.90;49.80;;;;;;10489230;28;20708;-81
2022/10/02 04:22:33;;;;;;;1.97;0.90;;;15.90;50.10;;;;;;10489336;28;20232;-80
2022/10/02 04:27:40;;;;;;;2.47;1.10;;;15.90;50.30;;;;;;10480916;28;20243;-80
2022/10/02 04:32:45;;;;;;;1.53;1.10;;;15.90;50.00;;;;;;10490642;28;20906;-81
2022/10/02 04:38:20;;;;;;;1.33;0.90;;;15.90;50.00;;;;;;10485389;28;20235;-81
2022/10/02 04:43:39;;;;;;;2.37;0.90;;;15.90;50.20;;;;;;10481810;28;20229;-81
2022/10/02 04:49:24;;;;;;;3.53;1.07;;;16.00;50.00;;;;;;10493462;28;20838;-80
2022/10/02 04:54:50;;;;;;;2.37;0.90;;;16.00;50.00;;;;;;10464994;28;20236;-78
2022/10/02 05:00:05;;;;;;;2.10;1.00;;;16.00;49.90;;;;;;10479000;28;20228;-80
2022/10/02 05:05:21;;;;;;;1.33;0.90;;;16.00;50.00;;;;;;10489307;28;20232;-80
2022/10/02 05:10:46;;;;;;;2.50;1.00;;;16.00;50.00;;;;;;10484893;28;20243;-79
2022/10/02 05:16:08;;;;;;;1.77;1.07;;;16.00;50.20;;;;;;10488536;28;20282;-80
2022/10/02 05:21:32;;;;;;;1.27;1.10;;;16.00;50.50;;;;;;10480959;28;20248;-80
2022/10/02 05:27:00;;;;;;;2.33;1.30;;;15.90;50.50;;;;;;10480412;28;20236;-79
2022/10/02 05:32:21;;;;;;;2.77;1.10;;;15.90;51.10;;;;;;10488774;28;20223;-79
2022/10/02 05:37:38;;;;;;;3.00;1.37;;;15.90;51.30;;;;;;10479901;28;20776;-79
2022/10/02 05:42:49;;;;;;;4.73;1.30;;;15.80;51.30;;;;;;10487879;28;20738;-79
2022/10/02 05:48:02;;;;;;;1.97;1.33;;;15.90;51.40;;;;;;10488698;28;20224;-78
2022/10/02 05:53:10;;;;;;;2.00;1.20;;;15.90;51.10;;;;;;10482835;28;20229;-79
2022/10/02 05:58:20;;;;;;;1.67;1.10;;;15.90;51.50;;;;;;10479588;28;20239;-79
2022/10/02 06:03:31;;;;;;;2.37;1.20;;;15.80;51.70;;;;;;10483503;28;20243;-78
2022/10/02 06:08:40;;;;;;;3.07;1.27;;;15.80;51.70;;;;;;10475945;28;20236;-79
2022/10/02 06:13:50;;;;;;;3.53;1.60;;;15.90;51.40;;;;;;10483065;28;21906;-79
2022/10/02 06:18:57;;;;;;;2.63;1.20;;;15.90;52.00;;;;;;10483020;28;20259;-79
2022/10/02 06:24:05;;;;;;;1.60;1.13;;;15.90;51.80;;;;;;10481523;28;20229;-79
2022/10/02 06:29:17;;;;;;;1.67;1.00;;;15.90;52.00;;;;;;10478106;28;20224;-79
2022/10/02 06:34:27;;;;;;;1.83;1.17;;;15.90;52.40;;;;;;10478373;28;20270;-78
2022/10/02 06:39:56;;;;;;;2.07;1.33;;;15.90;51.40;;;;;;10476311;28;20240;-78
2022/10/02 06:45:08;;;;;;;5.07;3.37;;;15.90;52.60;;;;;;10479087;28;20233;-79
2022/10/02 06:50:32;;;;;;;5.07;3.80;;;16.00;52.70;;;;;;10475232;28;20240;-79
2022/10/02 06:55:45;;;;;;;2.30;2.00;;;16.00;52.70;;;;;;10476542;28;20237;-79
2022/10/02 07:00:56;;;;;;;2.43;1.70;;;16.00;52.60;;;;;;10476775;28;20275;-80
2022/10/02 07:06:23;;;;;;;3.63;1.90;;;16.00;52.50;;;;;;10482767;28;20723;-80
2022/10/02 07:11:32;;;;;;;3.87;1.47;;;16.00;52.70;;;;;;10497872;28;20690;-80
2022/10/02 07:16:59;;;;;;;3.30;1.40;;;16.10;52.10;;;;;;10495320;28;20232;-80
2022/10/02 07:22:17;;;;;;;4.30;1.80;;;16.10;52.00;;;;;;10499142;28;20224;-80
2022/10/02 07:27:48;;;;;;;2.53;2.00;;;16.10;52.00;;;;;;10501141;28;20252;-80
2022/10/02 07:33:00;;;;;;;2.43;1.97;;;16.10;52.00;;;;;;10495649;28;20470;-80
2022/10/02 07:38:41;;;;;;;3.20;1.67;;;16.10;52.50;;;;;;10500637;28;20230;-80
2022/10/02 07:43:53;;;;;;;3.90;1.40;;;16.20;52.70;;;;;;10496609;28;20228;-81
2022/10/02 07:49:14;;;;;;;3.20;1.20;;;16.20;52.10;;;;;;10496075;28;20229;-81
2022/10/02 07:54:43;;;;;;;3.13;1.50;;;16.30;52.40;;;;;;10501096;28;20288;-80
2022/10/02 07:59:48;;;;;;;5.00;1.50;;;16.30;52.50;;;;;;10461344;28;20236;-81
2022/10/02 08:04:59;;;;;;;4.37;1.60;;;16.40;51.70;;;;;;10479796;28;20239;-78
2022/10/02 08:10:07;;;;;;;5.27;1.90;;;16.50;52.40;;;;;;10481030;28;20228;-78
2022/10/02 08:15:15;;;;;;;2.97;1.70;;;16.50;51.90;;;;;;10472677;28;20899;-78
2022/10/02 08:20:26;;;;;;;4.83;3.50;;;16.60;51.90;;;;;;10470639;28;20240;-78
2022/10/02 08:25:39;;;;;;;2.50;1.70;;;16.60;52.10;;;;;;10472081;28;20358;-79
2022/10/02 08:30:43;;;;;;;1.70;1.60;;;16.70;51.70;;;;;;10459885;28;20228;-77
2022/10/02 08:36:02;;;;;;;2.13;1.20;;;16.70;51.00;;;;;;10469872;28;20266;-77
2022/10/02 08:41:38;;;;;;;2.23;1.67;;;16.80;51.20;;;;;;10466144;28;20224;-77
2022/10/02 08:47:32;;;;;;;2.40;1.40;;;16.80;51.40;;;;;;10466646;28;20382;-78
2022/10/02 08:53:20;;;;;;;1.70;1.40;;;16.90;51.10;;;;;;10356015;28;20995;-79
2022/10/02 08:58:54;;;;;;;3.80;1.37;;;16.80;51.10;;;;;;10461693;28;20251;-77
2022/10/02 09:04:40;;;;;;;1.67;1.30;;;16.90;51.10;;;;;;10469629;28;20224;-77
2022/10/02 09:10:16;;;;;;;2.90;1.30;;;16.90;51.40;;;;;;10446023;28;20240;-80
2022/10/02 09:15:26;;;;;;;2.00;1.07;;;16.90;51.70;;;;;;10469025;28;20232;-75
2022/10/02 09:20:49;;;;;;;2.23;1.30;;;16.90;51.10;;;;;;10473077;28;20228;-75
2022/10/02 09:25:57;;;;;;;2.87;1.17;;;16.90;51.30;;;;;;10466406;28;20220;-75
2022/10/02 09:31:31;;;;;;;2.47;1.20;;;16.90;50.90;;;;;;10469268;28;20237;-75
2022/10/02 09:37:09;;;;;;;1.57;1.10;;;16.90;51.30;;;;;;10467858;28;20228;-75
2022/10/02 09:42:39;;;;;;;5.40;4.53;;;17.00;51.10;;;;;;10466615;28;20232;-76
2022/10/02 09:48:23;;;;;;;2.53;2.10;;;16.90;51.10;;;;;;10471853;28;20232;-76
2022/10/02 09:54:20;;;;;;;3.10;2.30;;;16.90;51.10;;;;;;10456193;28;20945;-76
2022/10/02 09:59:58;;;;;;;3.43;2.20;;;16.90;51.30;;;;;;10426192;28;20633;-76
2022/10/02 10:05:34;;;;;;;3.17;2.27;;;16.90;51.50;;;;;;10471460;28;20228;-76
2022/10/02 10:11:06;;;;;;;2.90;1.80;;;16.90;51.80;;;;;;10463744;28;20225;-77
2022/10/02 10:16:42;;;;;;;2.23;2.00;;;16.90;51.70;;;;;;10469932;28;20227;-76
2022/10/02 10:22:30;;;;;;;3.13;2.00;;;16.90;51.80;;;;;;10474529;28;20278;-76
2022/10/02 10:28:16;;;;;;;3.13;2.20;;;17.00;51.70;;;;;;10451058;28;20224;-75
2022/10/02 10:33:49;;;;;;;3.47;1.90;;;16.90;51.60;;;;;;10468039;28;20294;-75
2022/10/02 10:39:07;;;;;;;3.37;1.80;;;16.90;51.80;;;;;;10480415;28;20221;-76
2022/10/02 10:44:29;;;;;;;2.03;1.80;;;17.00;52.00;;;;;;10484411;28;20223;-75
2022/10/02 10:50:03;;;;;;;1.73;1.63;;;17.00;52.00;;;;;;10475868;28;20227;-75
2022/10/02 10:55:15;;;;;;;1.57;1.40;;;17.00;52.00;;;;;;10473791;28;20277;-75
2022/10/02 11:00:28;;;;;;;3.03;1.97;;;17.00;51.90;;;;;;10480573;28;20724;-75
2022/10/02 11:06:20;;;;;;;4.57;2.57;;;17.00;52.10;;;;;;10483225;28;20225;-75
2022/10/02 11:11:32;;;;;;;2.67;1.70;;;17.10;51.90;;;;;;10476986;28;20278;-74
2022/10/02 11:17:10;;;;;;;1.70;1.40;;;17.10;51.70;;;;;;10478144;28;20752;-75
2022/10/02 11:22:32;;;;;;;1.67;1.07;;;17.10;51.90;;;;;;10475018;28;20236;-75
2022/10/02 11:28:05;;;;;;;1.70;1.33;;;17.00;51.80;;;;;;10485341;28;20240;-75
2022/10/02 11:33:32;;;;;;;1.93;1.20;;;17.00;51.70;;;;;;10479310;28;20252;-76
2022/10/02 11:39:08;;;;;;;18.60;16.67;;;17.00;51.70;;;;;;10472950;28;20232;-75
2022/10/02 11:44:19;;;;;;;18.63;15.90;;;16.90;51.70;;;;;;10475018;28;20286;-76
2022/10/02 11:49:39;;;;;;;5.43;5.00;;;16.90;51.10;;;;;;10470918;28;20279;-75
2022/10/02 11:54:58;;;;;;;2.40;2.20;;;16.80;51.60;;;;;;10474793;28;20239;-75
2022/10/02 12:00:29;;;;;;;1.50;1.37;;;16.80;51.90;;;;;;10469248;28;20227;-76
2022/10/02 12:05:54;;;;;;;0.90;0.90;;;16.70;51.80;;;;;;10469124;28;20228;-75
2022/10/02 12:11:05;;;;;;;0.63;0.63;;;16.70;52.30;;;;;;10469261;28;20228;-76
2022/10/02 12:16:20;;;;;;;6.57;5.23;;;16.70;51.80;;;;;;10474096;28;20248;-76
2022/10/02 12:27:09;;;;;;;1.40;1.30;;;16.80;52.50;;;;;;10441977;28;20235;-76
2022/10/02 12:32:31;;;;;;;1.63;1.47;;;16.80;52.30;;;;;;10477807;28;20228;-77
2022/10/02 12:37:42;;;;;;;0.80;0.80;;;16.80;52.40;;;;;;10470246;28;21063;-76
2022/10/02 12:43:07;;;;;;;0.70;0.70;;;16.80;52.10;;;;;;10468722;28;20310;-76
2022/10/02 12:48:26;;;;;;;1.53;1.03;;;16.80;52.00;;;;;;10469098;28;20771;-76
2022/10/02 12:54:16;;;;;;;1.20;1.10;;;16.80;52.00;;;;;;10471171;28;20305;-77
2022/10/02 12:59:30;;;;;;;10.30;8.00;;;16.70;52.20;;;;;;10472086;28;20220;-76
2022/10/02 13:04:56;;;;;;;1.57;1.47;;;16.70;52.50;;;;;;10468534;28;20248;-76
2022/10/02 13:10:08;;;;;;;0.90;0.90;;;16.80;52.40;;;;;;10471860;28;20285;-76
2022/10/02 13:15:28;;;;;;;1.20;1.07;;;16.80;52.00;;;;;;10466033;28;20319;-76
2022/10/02 13:20:38;;;;;;;0.97;0.70;;;16.90;52.40;;;;;;10473081;28;20228;-76
2022/10/02 13:25:58;;;;;;;0.50;0.50;;;16.90;52.00;;;;;;10471774;28;20240;-76
2022/10/02 13:31:12;;;;;;;1.47;1.33;;;16.90;51.80;;;;;;10468884;28;20224;-76
2022/10/02 13:36:21;;;;;;;1.47;0.70;;;17.00;52.40;;;;;;10474355;28;20237;-76
2022/10/02 13:41:38;;;;;;;0.70;0.70;;;17.00;52.00;;;;;;10469045;28;20241;-76
2022/10/02 13:47:10;;;;;;;1.00;0.73;;;17.00;52.10;;;;;;10477251;28;20252;-76
2022/10/02 13:52:21;;;;;;;0.70;0.70;;;17.00;52.00;;;;;;10470143;28;20700;-76
2022/10/02 13:57:38;;;;;;;0.70;0.70;;;17.00;51.60;;;;;;10469179;28;20228;-76
2022/10/02 14:02:55;;;;;;;0.80;0.80;;;17.00;51.80;;;;;;10463513;28;20235;-76
2022/10/02 14:08:13;;;;;;;0.70;0.70;;;17.00;51.50;;;;;;10471216;28;20293;-76
2022/10/02 14:13:31;;;;;;;0.70;0.70;;;17.00;51.60;;;;;;10463854;28;20228;-76
2022/10/02 14:18:48;;;;;;;0.60;0.60;;;17.00;51.60;;;;;;10468768;28;20316;-76
2022/10/02 14:24:17;;;;;;;1.00;1.00;;;17.00;51.70;;;;;;10464250;28;20230;-76
2022/10/02 14:29:35;;;;;;;1.23;1.13;;;17.00;51.80;;;;;;10468852;28;20236;-76
2022/10/02 14:35:17;;;;;;;0.90;0.90;;;17.00;51.70;;;;;;10466396;28;20251;-76
2022/10/02 14:40:30;;;;;;;0.83;0.83;;;17.00;51.50;;;;;;10465287;28;20224;-76
2022/10/02 14:46:03;;;;;;;1.27;1.20;;;17.00;51.30;;;;;;10473648;28;20228;-76
2022/10/02 14:51:22;;;;;;;0.70;0.70;;;17.00;51.70;;;;;;10470880;28;20232;-78
2022/10/02 14:56:55;;;;;;;0.87;0.87;;;16.90;51.70;;;;;;10473193;28;20235;-78
2022/10/02 15:02:17;;;;;;;0.90;0.90;;;16.90;51.80;;;;;;10456004;28;20231;-76
2022/10/02 15:07:22;;;;;;;0.80;0.80;;;16.90;51.90;;;;;;10468341;28;20220;-78
2022/10/02 15:12:42;;;;;;;1.00;1.00;;;17.00;51.60;;;;;;10465821;28;20717;-77
2022/10/02 15:17:58;;;;;;;2.67;2.47;;;17.00;51.70;;;;;;10461804;28;20232;-77
2022/10/02 15:23:05;;;;;;;1.40;1.30;;;17.00;51.50;;;;;;10467797;28;20227;-77
2022/10/02 15:28:18;;;;;;;1.80;1.70;;;17.00;51.20;;;;;;10473407;28;20240;-79
2022/10/02 15:33:45;;;;;;;1.70;1.60;;;17.00;51.80;;;;;;10481909;28;20252;-79
2022/10/02 15:39:12;;;;;;;1.87;1.70;;;17.00;51.80;;;;;;10485205;28;20235;-80
2022/10/02 15:44:37;;;;;;;1.60;1.50;;;17.00;51.90;;;;;;10466144;28;20224;-80
2022/10/02 15:49:59;;;;;;;1.60;1.50;;;17.00;51.90;;;;;;10483901;28;20237;-80
2022/10/02 15:55:15;;;;;;;2.60;1.80;;;17.00;51.90;;;;;;10484400;28;20233;-80
2022/10/02 16:00:24;;;;;;;1.50;1.40;;;17.00;51.90;;;;;;10487003;28;20235;-80
2022/10/02 16:05:42;;;;;;;1.87;1.77;;;17.10;51.80;;;;;;10483314;28;20224;-80
2022/10/02 16:11:01;;;;;;;2.00;1.90;;;17.10;52.20;;;;;;10488499;28;20242;-80
2022/10/02 16:16:21;;;;;;;2.80;2.60;;;17.10;52.00;;;;;;10478899;28;20224;-79
2022/10/02 16:21:49;;;;;;;3.40;3.10;;;17.00;51.80;;;;;;10475374;28;20243;-80
2022/10/02 16:27:31;;;;;;;2.90;2.70;;;17.10;51.90;;;;;;10479545;28;20235;-79
2022/10/02 16:32:49;;;;;;;2.43;2.23;;;17.00;51.70;;;;;;10429330;28;20224;-81
2022/10/02 16:37:59;;;;;;;5.97;4.87;;;17.00;51.70;;;;;;10475530;28;20607;-80
2022/10/02 16:43:28;;;;;;;2.60;2.40;;;16.90;51.90;;;;;;10475838;28;20220;-80
2022/10/02 16:48:41;;;;;;;1.90;1.80;;;16.90;51.90;;;;;;10474578;28;20239;-81
2022/10/02 16:53:51;;;;;;;1.60;1.50;;;16.80;52.00;;;;;;10480399;28;20447;-80
2022/10/02 16:59:01;;;;;;;1.90;1.77;;;16.80;51.80;;;;;;10480097;28;20228;-80
2022/10/02 17:04:36;;;;;;;1.60;1.50;;;16.80;51.80;;;;;;10478914;28;20216;-80
2022/10/02 17:09:44;;;;;;;1.53;1.43;;;16.80;51.90;;;;;;10477967;28;20236;-81
2022/10/02 17:14:54;;;;;;;1.10;1.10;;;16.80;51.90;;;;;;10476521;28;20229;-81
2022/10/02 17:20:16;;;;;;;1.30;1.20;;;16.70;51.90;;;;;;10484536;28;20262;-80
2022/10/02 17:25:28;;;;;;;1.10;1.10;;;16.70;52.10;;;;;;10475836;28;20241;-81
2022/10/02 17:30:53;;;;;;;1.97;1.87;;;16.70;52.00;;;;;;10474168;28;20267;-81
2022/10/02 17:36:06;;;;;;;1.50;1.40;;;16.70;52.10;;;;;;10471003;28;20224;-80
2022/10/02 17:41:27;;;;;;;1.23;1.13;;;16.70;51.80;;;;;;10474544;28;20245;-80
2022/10/02 17:46:53;;;;;;;1.40;1.30;;;16.70;51.80;;;;;;10479016;28;20235;-80
2022/10/02 17:57:52;;;;;;;2.00;1.63;;;16.60;51.80;;;;;;10472939;28;20747;-80
2022/10/02 18:03:13;;;;;;;2.10;1.33;;;16.60;51.90;;;;;;10482880;28;20231;-80
2022/10/02 18:08:41;;;;;;;1.80;1.33;;;16.60;52.00;;;;;;10482856;28;20620;-80
2022/10/02 18:14:01;;;;;;;2.00;1.20;;;16.50;52.00;;;;;;10486041;28;20232;-80
2022/10/02 18:19:32;;;;;;;0.90;0.90;;;16.50;52.20;;;;;;10478707;28;20229;-80
2022/10/02 18:25:02;;;;;;;1.00;1.00;;;16.50;52.10;;;;;;10470501;28;20230;-80
2022/10/02 18:30:13;;;;;;;1.33;1.20;;;16.50;52.10;;;;;;10477031;28;20289;-80
2022/10/02 18:35:31;;;;;;;1.37;1.27;;;16.60;51.90;;;;;;10479707;28;20224;-80
2022/10/02 18:40:52;;;;;;;2.07;1.90;;;16.60;52.00;;;;;;10475611;28;20239;-79
2022/10/02 18:46:03;;;;;;;1.73;1.63;;;16.60;51.90;;;;;;10476190;28;20274;-76
2022/10/02 18:51:24;;;;;;;1.13;1.13;;;16.60;51.90;;;;;;10470480;28;20274;-78
2022/10/02 18:56:50;;;;;;;1.17;1.17;;;16.50;51.90;;;;;;10482807;28;20239;-78
2022/10/02 19:02:03;;;;;;;1.17;1.17;;;16.50;51.90;;;;;;10487055;28;20225;-78
2022/10/02 19:07:13;;;;;;;1.00;1.00;;;16.40;52.20;;;;;;10485433;28;20308;-77
2022/10/02 19:12:23;;;;;;;5.53;5.13;;;16.40;52.20;;;;;;10481223;28;20228;-77
2022/10/02 19:17:28;;;;;;;1.50;1.40;;;16.30;52.30;;;;;;10477977;28;20232;-78
2022/10/02 19:22:37;;;;;;;1.20;1.20;;;16.40;52.10;;;;;;10481290;28;20246;-78
2022/10/02 19:27:47;;;;;;;8.00;7.20;;;16.30;52.10;;;;;;10486028;28;20705;-78
2022/10/02 19:32:53;;;;;;;2.10;2.00;;;16.30;52.30;;;;;;10479286;28;20220;-77
2022/10/02 19:38:08;;;;;;;3.57;3.03;;;16.30;52.10;;;;;;10479037;28;20224;-77
2022/10/02 19:43:21;;;;;;;1.30;1.20;;;16.30;52.20;;;;;;10483053;28;20228;-78
2022/10/02 19:48:27;;;;;;;1.60;1.50;;;16.30;52.00;;;;;;10486074;28;20236;-78
2022/10/02 19:53:33;;;;;;;1.60;1.50;;;16.40;52.10;;;;;;10483591;28;20282;-78
2022/10/02 19:58:44;;;;;;;1.27;1.20;;;16.40;52.10;;;;;;10482403;28;20232;-78
2022/10/02 20:03:50;;;;;;;1.30;1.20;;;16.40;52.30;;;;;;10481573;28;20270;-78
2022/10/02 20:08:57;;;;;;;1.17;1.17;;;16.40;51.90;;;;;;10485931;28;20232;-78
2022/10/02 20:14:05;;;;;;;1.10;1.10;;;16.40;52.10;;;;;;10478324;28;20598;-78
2022/10/02 20:19:14;;;;;;;1.20;1.10;;;16.40;52.20;;;;;;10481305;28;20298;-80
2022/10/02 20:24:25;;;;;;;1.10;1.10;;;16.40;51.90;;;;;;10484962;28;20225;-79
2022/10/02 20:29:35;;;;;;;1.27;1.20;;;16.40;52.10;;;;;;10481246;28;20236;-78
2022/10/02 20:34:43;;;;;;;2.30;2.20;;;16.40;52.10;;;;;;10472117;28;20232;-78
2022/10/02 20:39:53;;;;;;;1.57;1.47;;;16.40;51.90;;;;;;10470501;28;20228;-78
2022/10/02 20:45:01;;;;;;;1.50;1.40;;;16.40;51.70;;;;;;10466545;28;20235;-78
2022/10/02 20:50:32;;;;;;;1.20;1.20;;;16.40;51.50;;;;;;10470927;28;20689;-78
2022/10/02 20:55:43;;;;;;;1.10;1.10;;;16.30;51.70;;;;;;10471098;28;20232;-78
2022/10/02 21:01:12;;;;;;;1.03;1.03;;;16.30;51.80;;;;;;10471058;28;20235;-78
2022/10/02 21:06:38;;;;;;;1.57;1.30;;;16.30;51.90;;;;;;10470304;28;20229;-78
2022/10/02 21:12:08;;;;;;;2.17;2.07;;;16.30;51.80;;;;;;10470803;28;20603;-79
2022/10/02 21:17:39;;;;;;;2.50;1.67;;;16.30;51.90;;;;;;10471063;28;20220;-78
2022/10/02 21:23:16;;;;;;;1.90;1.80;;;16.30;51.90;;;;;;10477944;28;20243;-78
2022/10/02 21:28:51;;;;;;;2.13;2.03;;;16.30;52.00;;;;;;10451538;28;20232;-78
2022/10/02 21:34:09;;;;;;;1.83;1.73;;;16.20;51.80;;;;;;10476322;28;20286;-78
2022/10/02 21:39:47;;;;;;;3.17;1.43;;;16.20;51.60;;;;;;10471124;28;20244;-78
2022/10/02 21:45:22;;;;;;;1.57;1.40;;;16.20;51.30;;;;;;10465586;28;20229;-78
2022/10/02 21:51:01;;;;;;;1.50;1.27;;;16.20;51.30;;;;;;10429067;28;20649;-78
2022/10/02 21:56:29;;;;;;;1.40;1.30;;;16.10;51.30;;;;;;10456302;28;20221;-78
2022/10/02 22:02:17;;;;;;;1.33;1.30;;;16.10;51.20;;;;;;10473716;28;20232;-78
2022/10/02 22:07:33;;;;;;;1.40;1.30;;;16.00;51.10;;;;;;10471110;28;20968;-78
2022/10/02 22:12:51;;;;;;;1.77;1.30;;;16.00;51.20;;;;;;10481546;28;20230;-77
2022/10/02 22:18:00;;;;;;;1.30;1.30;;;15.90;51.10;;;;;;10470515;28;20228;-77
2022/10/02 22:23:27;;;;;;;2.03;1.40;;;15.90;51.10;;;;;;10474281;28;20221;-78
2022/10/02 22:28:42;;;;;;;1.50;1.40;;;15.80;51.30;;;;;;10473089;28;20283;-78
2022/10/02 22:33:55;;;;;;;1.90;1.80;;;15.80;51.50;;;;;;10484072;28;20219;-78
2022/10/02 22:39:08;;;;;;;1.73;1.60;;;15.70;51.70;;;;;;10481913;28;20234;-78
2022/10/02 22:44:19;;;;;;;1.70;1.60;;;15.60;51.90;;;;;;10487122;28;20225;-78
2022/10/02 22:49:29;;;;;;;2.07;1.90;;;15.60;51.70;;;;;;10473713;28;20615;-78
2022/10/02 22:54:42;;;;;;;2.10;1.90;;;15.60;51.80;;;;;;10481830;28;20224;-78
2022/10/02 22:59:53;;;;;;;2.00;1.90;;;15.50;51.70;;;;;;10477643;28;20651;-78
2022/10/02 23:05:04;;;;;;;2.20;2.00;;;15.50;51.60;;;;;;10476245;28;20705;-78
2022/10/02 23:10:20;;;;;;;2.37;2.23;;;15.50;51.70;;;;;;10474572;28;20294;-77
2022/10/02 23:15:34;;;;;;;2.60;2.40;;;15.50;51.70;;;;;;10476293;28;20236;-78
2022/10/02 23:20:42;;;;;;;2.23;2.13;;;15.40;51.60;;;;;;10476587;28;20244;-78
2022/10/02 23:25:52;;;;;;;2.60;2.40;;;15.40;51.50;;;;;;10481808;28;20267;-78
2022/10/02 23:31:09;;;;;;;3.57;2.20;;;15.30;51.50;;;;;;10480683;28;20237;-78
2022/10/02 23:36:24;;;;;;;3.33;2.70;;;15.30;51.70;;;;;;10475890;28;20235;-78
2022/10/02 23:41:46;;;;;;;2.73;2.47;;;15.20;51.70;;;;;;10480018;28;20248;-78
2022/10/02 23:47:10;;;;;;;2.57;2.40;;;15.10;51.60;;;;;;10480490;28;20271;-78
2022/10/02 23:52:35;;;;;;;3.53;2.30;;;15.10;51.90;;;;;;10484769;28;20231;-78
2022/10/02 23:58:17;;;;;;;2.40;2.20;;;15.10;51.90;;;;;;10471749;28;20233;-78
